Time;durP1;ratioP1;P1;durP2;ratioP2;P2;SDS_P1;SDS_P2;PMS_P1;PMS_P2;Temp;Humidity;BMP_temperature;BMP_pressure;BME280_temperature;BME280_humidity;BME280_pressure;Samples;Min_cycle;Max_cycle;Signal;HPM_P1;HPM_P2
2023/10/29 00:01:28;;;;;;;8.25;5.55;;;;;;;;;;5035112;28;20476;-62
2023/10/29 00:03:54;;;;;;;7.13;5.28;;;;;;;;;;5034683;28;20029;-62
2023/10/29 00:06:19;;;;;;;10.70;6.35;;;;;;;;;;5034893;28;20123;-62
2023/10/29 00:08:45;;;;;;;7.97;5.53;;;;;;;;;;5034989;28;20314;-62
2023/10/29 00:11:11;;;;;;;8.88;5.60;;;;;;;;;;5016737;28;20468;-62
2023/10/29 00:13:37;;;;;;;9.00;5.75;;;;;;;;;;5016686;28;20036;-60
2023/10/29 00:16:02;;;;;;;9.05;6.13;;;;;;;;;;5034695;28;20060;-60
2023/10/29 00:18:28;;;;;;;8.95;6.25;;;;;;;;;;5035031;28;20068;-60
2023/10/29 00:20:53;;;;;;;8.73;6.00;;;;;;;;;;5034782;28;20025;-60
2023/10/29 00:23:18;;;;;;;10.82;6.72;;;;;;;;;;5034780;28;20037;-60
2023/10/29 00:25:44;;;;;;;11.70;6.63;;;;;;;;;;5034710;28;20042;-60
2023/10/29 00:28:11;;;;;;;10.43;6.07;;;;;;;;;;5034478;28;20025;-60
2023/10/29 00:30:37;;;;;;;8.02;4.80;;;;;;;;;;5016969;28;20033;-60
2023/10/29 00:33:02;;;;;;;11.02;4.65;;;;;;;;;;5016985;28;20032;-60
2023/10/29 00:35:28;;;;;;;8.95;5.10;;;;;;;;;;5034742;28;20032;-60
2023/10/29 00:37:53;;;;;;;7.40;5.05;;;;;;;;;;5017051;28;20026;-59
2023/10/29 00:40:19;;;;;;;6.63;4.60;;;;;;;;;;5034242;28;20100;-59
2023/10/29 00:42:46;;;;;;;8.07;6.00;;;;;;;;;;5016507;28;20159;-59
2023/10/29 00:45:12;;;;;;;9.80;5.13;;;;;;;;;;5033934;28;20033;-60
2023/10/29 00:47:37;;;;;;;8.07;5.40;;;;;;;;;;5017089;28;20021;-60
2023/10/29 00:50:04;;;;;;;7.45;5.05;;;;;;;;;;5016649;28;20393;-60
2023/10/29 00:52:31;;;;;;;7.18;5.25;;;;;;;;;;5016502;28;20029;-60
2023/10/29 00:54:56;;;;;;;8.18;5.20;;;;;;;;;;5016601;28;20040;-60
2023/10/29 00:57:22;;;;;;;8.07;5.30;;;;;;;;;;5034359;28;20491;-60
2023/10/29 00:59:47;;;;;;;6.72;5.30;;;;;;;;;;5016718;28;20472;-60
2023/10/29 01:02:13;;;;;;;6.95;4.90;;;;;;;;;;5016605;28;20044;-60
2023/10/29 01:04:38;;;;;;;6.72;4.80;;;;;;;;;;5034149;28;20068;-60
2023/10/29 01:07:04;;;;;;;6.88;4.88;;;;;;;;;;5033757;28;20053;-60
2023/10/29 01:09:30;;;;;;;7.05;4.90;;;;;;;;;;5034136;28;20083;-61
2023/10/29 01:11:55;;;;;;;8.77;4.95;;;;;;;;;;5016419;28;20423;-60
2023/10/29 01:14:20;;;;;;;7.75;5.35;;;;;;;;;;5016308;28;20053;-60
2023/10/29 01:16:46;;;;;;;7.43;5.22;;;;;;;;;;5033962;28;20037;-60
2023/10/29 01:19:11;;;;;;;6.95;5.43;;;;;;;;;;5016254;28;20026;-60
2023/10/29 01:21:36;;;;;;;6.18;5.53;;;;;;;;;;5016909;28;20026;-59
2023/10/29 01:24:02;;;;;;;7.97;5.85;;;;;;;;;;5015982;28;20025;-59
2023/10/29 01:26:27;;;;;;;9.82;6.20;;;;;;;;;;5034151;28;20021;-59
2023/10/29 01:28:53;;;;;;;9.73;5.72;;;;;;;;;;5016163;28;20051;-60
2023/10/29 01:31:18;;;;;;;11.73;5.93;;;;;;;;;;5033804;28;20079;-60
2023/10/29 01:33:44;;;;;;;7.10;5.50;;;;;;;;;;5033675;28;20037;-59
2023/10/29 01:36:09;;;;;;;6.20;5.20;;;;;;;;;;5033639;28;20022;-59
2023/10/29 01:38:34;;;;;;;7.25;5.65;;;;;;;;;;5033754;28;20032;-59
2023/10/29 01:41:00;;;;;;;7.45;5.50;;;;;;;;;;5016258;28;20453;-59
2023/10/29 01:43:26;;;;;;;8.85;5.35;;;;;;;;;;5034004;28;20124;-61
2023/10/29 01:45:51;;;;;;;8.88;6.05;;;;;;;;;;5015596;28;20049;-61
2023/10/29 01:48:17;;;;;;;7.82;5.35;;;;;;;;;;5016230;28;20432;-60
2023/10/29 01:50:43;;;;;;;8.45;4.88;;;;;;;;;;5033879;28;20032;-60
2023/10/29 01:53:09;;;;;;;8.52;5.40;;;;;;;;;;5033878;28;20092;-60
2023/10/29 01:55:36;;;;;;;13.95;6.07;;;;;;;;;;5016093;28;20041;-60
2023/10/29 01:58:02;;;;;;;9.57;6.85;;;;;;;;;;5002349;28;20036;-59
2023/10/29 02:00:27;;;;;;;11.77;7.53;;;;;;;;;;5019529;28;20029;-60
2023/10/29 02:02:54;;;;;;;10.63;7.05;;;;;;;;;;5037354;28;20029;-60
2023/10/29 02:05:21;;;;;;;9.63;7.55;;;;;;;;;;5037298;28;20042;-60
2023/10/29 02:07:47;;;;;;;10.35;6.40;;;;;;;;;;5037245;28;20368;-59
2023/10/29 02:10:13;;;;;;;11.30;6.75;;;;;;;;;;5002953;28;20120;-59
2023/10/29 02:12:38;;;;;;;10.63;6.75;;;;;;;;;;5019412;28;20029;-59
2023/10/29 02:15:07;;;;;;;11.20;6.80;;;;;;;;;;5019402;28;20021;-60
2023/10/29 02:17:32;;;;;;;7.65;5.45;;;;;;;;;;5019660;28;20025;-60
2023/10/29 02:19:58;;;;;;;7.25;5.53;;;;;;;;;;5037278;28;20449;-60
2023/10/29 02:22:24;;;;;;;9.07;5.53;;;;;;;;;;5036954;28;20040;-60
2023/10/29 02:24:50;;;;;;;10.75;6.97;;;;;;;;;;5037043;28;20083;-62
2023/10/29 02:27:16;;;;;;;10.15;7.47;;;;;;;;;;5019376;28;20092;-60
2023/10/29 02:29:41;;;;;;;11.93;8.02;;;;;;;;;;5036730;28;20018;-61
2023/10/29 02:32:07;;;;;;;10.20;7.18;;;;;;;;;;5019235;28;20038;-62
2023/10/29 02:34:32;;;;;;;8.23;6.95;;;;;;;;;;5019505;28;20028;-60
2023/10/29 02:36:57;;;;;;;9.98;5.80;;;;;;;;;;5019006;28;20025;-60
2023/10/29 02:39:23;;;;;;;8.90;5.25;;;;;;;;;;5036753;28;20038;-61
2023/10/29 02:41:48;;;;;;;7.25;5.15;;;;;;;;;;5018917;28;20021;-60
2023/10/29 02:44:14;;;;;;;7.50;5.60;;;;;;;;;;5037034;28;20453;-60
2023/10/29 02:46:39;;;;;;;7.13;5.03;;;;;;;;;;5018961;28;20033;-61
2023/10/29 02:49:04;;;;;;;7.57;5.13;;;;;;;;;;5036349;28;20033;-59
2023/10/29 02:51:30;;;;;;;7.55;5.28;;;;;;;;;;5036570;28;20025;-60
2023/10/29 02:53:55;;;;;;;11.55;5.15;;;;;;;;;;5018673;28;20069;-59
2023/10/29 02:56:21;;;;;;;7.40;5.28;;;;;;;;;;5018710;28;20034;-59
2023/10/29 02:58:46;;;;;;;7.88;5.38;;;;;;;;;;5018693;28;20041;-60
2023/10/29 03:01:15;;;;;;;5.70;4.97;;;;;;;;;;5036563;28;20028;-66
2023/10/29 03:03:41;;;;;;;6.03;4.78;;;;;;;;;;5002243;28;20121;-59
2023/10/29 03:06:07;;;;;;;8.98;5.30;;;;;;;;;;5018545;28;20116;-60
2023/10/29 03:08:33;;;;;;;8.45;5.00;;;;;;;;;;5017981;28;20022;-59
2023/10/29 03:10:59;;;;;;;8.73;5.05;;;;;;;;;;5036181;28;20441;-61
2023/10/29 03:13:24;;;;;;;6.30;5.35;;;;;;;;;;5018441;28;20021;-61
2023/10/29 03:15:50;;;;;;;8.82;6.00;;;;;;;;;;5036048;28;20033;-61
2023/10/29 03:18:15;;;;;;;8.35;6.20;;;;;;;;;;5017836;28;20443;-61
2023/10/29 03:20:41;;;;;;;8.02;6.20;;;;;;;;;;5018175;28;20037;-59
2023/10/29 03:23:06;;;;;;;7.55;6.50;;;;;;;;;;5036418;28;20483;-59
2023/10/29 03:25:32;;;;;;;9.15;6.10;;;;;;;;;;5018063;28;20033;-59
2023/10/29 03:27:57;;;;;;;9.48;5.95;;;;;;;;;;5035839;28;20479;-59
2023/10/29 03:30:23;;;;;;;11.35;7.05;;;;;;;;;;5036029;28;20018;-60
2023/10/29 03:32:48;;;;;;;8.68;6.22;;;;;;;;;;5017548;28;20357;-60
2023/10/29 03:35:13;;;;;;;8.15;6.13;;;;;;;;;;5017778;28;20044;-60
2023/10/29 03:37:39;;;;;;;10.48;6.20;;;;;;;;;;5017982;28;20029;-60
2023/10/29 03:40:06;;;;;;;7.53;5.30;;;;;;;;;;5017415;28;20040;-61
2023/10/29 03:42:31;;;;;;;7.68;5.35;;;;;;;;;;5017917;28;20030;-60
2023/10/29 03:44:58;;;;;;;7.82;5.70;;;;;;;;;;5035554;28;20044;-60
2023/10/29 03:47:23;;;;;;;7.78;5.30;;;;;;;;;;5035448;28;20045;-60
2023/10/29 03:49:48;;;;;;;8.15;5.25;;;;;;;;;;5017651;28;20028;-60
2023/10/29 03:52:14;;;;;;;6.90;5.53;;;;;;;;;;5035639;28;20495;-59
2023/10/29 03:54:39;;;;;;;10.05;5.95;;;;;;;;;;5017894;28;20037;-59
2023/10/29 03:57:05;;;;;;;9.10;5.63;;;;;;;;;;5035613;28;20118;-59
2023/10/29 03:59:30;;;;;;;6.68;4.90;;;;;;;;;;5017424;28;20037;-60
2023/10/29 04:01:55;;;;;;;7.57;4.88;;;;;;;;;;5035354;28;20040;-59
2023/10/29 04:04:21;;;;;;;7.43;5.03;;;;;;;;;;5035087;28;20017;-59
2023/10/29 04:06:46;;;;;;;10.88;5.30;;;;;;;;;;5034951;28;20029;-59
2023/10/29 04:09:12;;;;;;;7.45;5.40;;;;;;;;;;5034885;28;20053;-59
2023/10/29 04:11:37;;;;;;;8.57;5.00;;;;;;;;;;5035261;28;20033;-59
2023/10/29 04:14:03;;;;;;;7.88;5.30;;;;;;;;;;5034919;28;20100;-60
2023/10/29 04:16:28;;;;;;;9.38;5.30;;;;;;;;;;5035195;28;20017;-61
2023/10/29 04:18:54;;;;;;;8.15;5.50;;;;;;;;;;5034421;28;20431;-60
2023/10/29 04:21:19;;;;;;;9.23;5.25;;;;;;;;;;5033742;28;20033;-60
2023/10/29 04:23:44;;;;;;;8.10;5.07;;;;;;;;;;5034552;28;20037;-60
2023/10/29 04:26:10;;;;;;;6.75;5.32;;;;;;;;;;5034607;28;20445;-60
2023/10/29 04:28:35;;;;;;;10.18;6.28;;;;;;;;;;5035076;28;20056;-60
2023/10/29 04:31:01;;;;;;;8.27;6.35;;;;;;;;;;5034653;28;20037;-60
2023/10/29 04:33:27;;;;;;;7.35;5.25;;;;;;;;;;5016898;28;20029;-61
2023/10/29 04:35:52;;;;;;;9.20;5.78;;;;;;;;;;5034633;28;20484;-62
2023/10/29 04:38:18;;;;;;;9.25;6.18;;;;;;;;;;5034730;28;20449;-61
2023/10/29 04:40:44;;;;;;;10.18;6.10;;;;;;;;;;5034481;28;20037;-61
2023/10/29 04:43:09;;;;;;;8.02;5.95;;;;;;;;;;5033953;28;20369;-60
2023/10/29 04:45:35;;;;;;;9.23;5.38;;;;;;;;;;4999627;28;20103;-60
2023/10/29 04:48:00;;;;;;;6.88;4.70;;;;;;;;;;5016251;28;20114;-60
2023/10/29 04:50:25;;;;;;;7.22;4.97;;;;;;;;;;5034289;28;20026;-60
2023/10/29 04:52:51;;;;;;;7.22;4.72;;;;;;;;;;5034444;28;20010;-60
2023/10/29 04:55:16;;;;;;;5.70;4.85;;;;;;;;;;5016498;28;20365;-59
2023/10/29 04:57:42;;;;;;;5.90;4.28;;;;;;;;;;5034356;28;20029;-60
2023/10/29 05:00:08;;;;;;;6.97;4.35;;;;;;;;;;5034196;28;20033;-64
2023/10/29 05:02:35;;;;;;;5.85;4.38;;;;;;;;;;5034210;28;20116;-60
2023/10/29 05:05:01;;;;;;;6.32;4.93;;;;;;;;;;5033992;28;20048;-61
2023/10/29 05:07:26;;;;;;;11.75;5.72;;;;;;;;;;5034029;28;20025;-61
2023/10/29 05:09:52;;;;;;;8.52;5.55;;;;;;;;;;4999306;28;20045;-60
2023/10/29 05:12:17;;;;;;;11.63;6.05;;;;;;;;;;4999185;28;20018;-60
2023/10/29 05:14:42;;;;;;;14.00;6.47;;;;;;;;;;5033089;28;20392;-60
2023/10/29 05:17:08;;;;;;;13.20;6.35;;;;;;;;;;5015414;28;20030;-60
2023/10/29 05:19:34;;;;;;;8.93;5.75;;;;;;;;;;5033279;28;20167;-60
2023/10/29 05:21:59;;;;;;;7.80;4.63;;;;;;;;;;5033360;28;20038;-60
2023/10/29 05:24:24;;;;;;;5.82;4.22;;;;;;;;;;5033129;28;20025;-60
2023/10/29 05:26:50;;;;;;;6.78;4.50;;;;;;;;;;5033429;28;20014;-60
2023/10/29 05:29:16;;;;;;;6.30;4.22;;;;;;;;;;5033255;28;20480;-60
2023/10/29 05:31:41;;;;;;;6.10;3.72;;;;;;;;;;5033809;28;20033;-60
2023/10/29 05:34:07;;;;;;;4.00;3.60;;;;;;;;;;5003085;28;20040;-60
2023/10/29 05:36:32;;;;;;;5.82;4.05;;;;;;;;;;5037418;28;20033;-60
2023/10/29 05:38:58;;;;;;;5.72;3.67;;;;;;;;;;5036810;28;20037;-60
2023/10/29 05:41:25;;;;;;;5.72;4.32;;;;;;;;;;5036793;28;20030;-60
2023/10/29 05:43:51;;;;;;;4.82;3.40;;;;;;;;;;5037145;28;20445;-60
2023/10/29 05:46:16;;;;;;;6.05;4.47;;;;;;;;;;5019020;28;20045;-61
2023/10/29 05:48:41;;;;;;;9.32;6.45;;;;;;;;;;5036899;28;20427;-60
2023/10/29 05:51:12;;;;;;;9.82;6.47;;;;;;;;;;5037022;28;20029;-61
2023/10/29 05:53:38;;;;;;;9.35;6.07;;;;;;;;;;5037015;28;20065;-60
2023/10/29 05:56:04;;;;;;;10.32;6.40;;;;;;;;;;5032424;28;20052;-60
2023/10/29 05:58:30;;;;;;;8.60;6.18;;;;;;;;;;5022959;28;20022;-60
2023/10/29 06:00:55;;;;;;;7.35;5.40;;;;;;;;;;5026185;28;20457;-60
2023/10/29 06:03:21;;;;;;;6.32;4.75;;;;;;;;;;5016573;28;20029;-60
2023/10/29 06:05:46;;;;;;;7.10;4.20;;;;;;;;;;5024189;28;20030;-60
2023/10/29 06:08:11;;;;;;;6.35;4.15;;;;;;;;;;5019108;28;20037;-68
2023/10/29 06:10:37;;;;;;;4.72;3.88;;;;;;;;;;5036568;28;20028;-68
2023/10/29 06:13:02;;;;;;;8.65;4.53;;;;;;;;;;5036687;28;20025;-68
2023/10/29 06:15:27;;;;;;;12.80;4.80;;;;;;;;;;5036581;28;20033;-68
2023/10/29 06:17:54;;;;;;;5.00;3.88;;;;;;;;;;5036295;28;20048;-68
2023/10/29 06:20:21;;;;;;;7.63;4.35;;;;;;;;;;5036574;28;20103;-68
2023/10/29 06:22:47;;;;;;;13.27;4.50;;;;;;;;;;5036051;28;20029;-68
2023/10/29 06:25:13;;;;;;;7.05;4.32;;;;;;;;;;5018410;28;20029;-68
2023/10/29 06:27:38;;;;;;;8.32;4.07;;;;;;;;;;5036205;28;20111;-68
2023/10/29 06:30:04;;;;;;;5.97;4.30;;;;;;;;;;5036160;28;20030;-68
2023/10/29 06:32:29;;;;;;;5.40;3.97;;;;;;;;;;5018620;28;20091;-68
2023/10/29 06:34:55;;;;;;;6.90;4.13;;;;;;;;;;5035848;28;20060;-68
2023/10/29 06:37:22;;;;;;;5.90;4.40;;;;;;;;;;5036325;28;20072;-68
2023/10/29 06:39:48;;;;;;;6.88;4.40;;;;;;;;;;5036186;28;20583;-67
2023/10/29 06:42:14;;;;;;;5.28;4.20;;;;;;;;;;5035675;28;20046;-68
2023/10/29 06:44:39;;;;;;;6.40;4.22;;;;;;;;;;5035889;28;20033;-66
2023/10/29 06:47:05;;;;;;;5.78;4.60;;;;;;;;;;5017987;28;20581;-70
2023/10/29 06:49:30;;;;;;;7.38;4.60;;;;;;;;;;5036257;28;20029;-69
2023/10/29 06:51:56;;;;;;;5.30;4.40;;;;;;;;;;5036116;28;20529;-69
2023/10/29 06:54:21;;;;;;;5.45;4.10;;;;;;;;;;5035886;28;20037;-69
2023/10/29 06:56:47;;;;;;;6.07;4.00;;;;;;;;;;5017875;28;20029;-69
2023/10/29 06:59:14;;;;;;;6.57;4.05;;;;;;;;;;5036070;28;20449;-70
2023/10/29 07:01:42;;;;;;;4.03;3.63;;;;;;;;;;5036319;28;20033;-69
2023/10/29 08:48:04;;;;;;;5.00;2.30;;;;;;;;;;4969059;28;20050;-71
2023/10/29 08:50:30;;;;;;;3.22;2.42;;;;;;;;;;4957969;28;20035;-71
2023/10/29 08:52:56;;;;;;;3.40;2.33;;;;;;;;;;4975665;28;20037;-71
2023/10/29 08:55:22;;;;;;;5.72;2.53;;;;;;;;;;4975547;28;20035;-71
2023/10/29 08:57:47;;;;;;;5.32;2.75;;;;;;;;;;4975684;28;20037;-71
2023/10/29 09:00:13;;;;;;;3.55;2.70;;;;;;;;;;4958006;28;20089;-71
2023/10/29 09:02:38;;;;;;;5.38;2.35;;;;;;;;;;4974567;28;20026;-71
2023/10/29 09:05:04;;;;;;;4.05;2.50;;;;;;;;;;4975198;28;20125;-71
2023/10/29 09:07:33;;;;;;;4.57;3.33;;;;;;;;;;4957938;28;20033;-71
2023/10/29 09:09:58;;;;;;;6.47;2.58;;;;;;;;;;4975297;28;20065;-71
2023/10/29 09:12:26;;;;;;;5.18;2.97;;;;;;;;;;4975224;28;20055;-71
2023/10/29 09:14:51;;;;;;;4.60;2.13;;;;;;;;;;4975452;28;20423;-71
2023/10/29 09:17:19;;;;;;;2.67;2.28;;;;;;;;;;4975133;28;20062;-71
2023/10/29 09:19:44;;;;;;;2.40;1.85;;;;;;;;;;4975030;28;20037;-71
2023/10/29 09:22:10;;;;;;;2.78;2.10;;;;;;;;;;4974828;28;20486;-71
2023/10/29 09:24:36;;;;;;;1.88;1.75;;;;;;;;;;4974667;28;20074;-71
2023/10/29 09:27:01;;;;;;;1.83;1.73;;;;;;;;;;4975200;28;20053;-71
2023/10/29 09:29:27;;;;;;;2.85;1.88;;;;;;;;;;4975254;28;20030;-71
2023/10/29 09:31:54;;;;;;;2.72;1.85;;;;;;;;;;4975282;28;20071;-71
2023/10/29 09:34:19;;;;;;;1.83;1.60;;;;;;;;;;4975116;28;20038;-71
2023/10/29 09:36:45;;;;;;;1.95;1.73;;;;;;;;;;4974873;28;20035;-71
2023/10/29 09:39:10;;;;;;;3.53;1.90;;;;;;;;;;4957644;28;20031;-67
2023/10/29 09:41:37;;;;;;;3.25;1.85;;;;;;;;;;4957879;28;20085;-67
2023/10/29 09:44:02;;;;;;;2.13;1.92;;;;;;;;;;4974593;28;20031;-66
2023/10/29 09:46:30;;;;;;;1.95;1.58;;;;;;;;;;4974526;28;20027;-67
2023/10/29 09:48:56;;;;;;;2.63;1.77;;;;;;;;;;4974650;28;20130;-67
2023/10/29 09:51:21;;;;;;;3.30;2.10;;;;;;;;;;4974821;28;20038;-67
2023/10/29 09:53:48;;;;;;;1.90;1.80;;;;;;;;;;4974564;28;20031;-67
2023/10/29 09:56:15;;;;;;;3.08;2.08;;;;;;;;;;4974709;28;20023;-67
2023/10/29 09:58:41;;;;;;;2.75;1.88;;;;;;;;;;4974662;28;20034;-67
2023/10/29 10:01:07;;;;;;;3.58;1.55;;;;;;;;;;4974773;28;20446;-67
2023/10/29 10:03:33;;;;;;;1.50;1.40;;;;;;;;;;4975165;28;20035;-66
2023/10/29 10:05:59;;;;;;;1.75;1.65;;;;;;;;;;4974460;28;20085;-67
2023/10/29 10:08:25;;;;;;;2.25;2.00;;;;;;;;;;4940896;28;20125;-67
2023/10/29 10:10:51;;;;;;;2.78;1.70;;;;;;;;;;4974852;28;20023;-67
2023/10/29 10:13:17;;;;;;;1.73;1.40;;;;;;;;;;4974641;28;20027;-67
2023/10/29 10:15:43;;;;;;;3.55;1.67;;;;;;;;;;4974403;28;20439;-67
2023/10/29 10:18:11;;;;;;;2.47;2.17;;;;;;;;;;4958345;28;20382;-67
2023/10/29 10:20:36;;;;;;;2.22;1.75;;;;;;;;;;4978289;28;20023;-67
2023/10/29 10:23:02;;;;;;;1.58;1.48;;;;;;;;;;4977853;28;20045;-67
2023/10/29 10:25:29;;;;;;;1.67;1.45;;;;;;;;;;4960467;28;20118;-67
2023/10/29 10:27:56;;;;;;;1.92;1.60;;;;;;;;;;4978242;28;20019;-67
2023/10/29 10:30:35;;;;;;;1.52;1.42;;;;;;;;;;4960407;28;20027;-67
2023/10/29 10:33:11;;;;;;;5.95;1.55;;;;;;;;;;4960637;28;20386;-67
2023/10/29 10:35:42;;;;;;;2.20;1.65;;;;;;;;;;4978011;28;20454;-67
2023/10/29 10:38:08;;;;;;;1.77;1.63;;;;;;;;;;4977953;28;20031;-67
2023/10/29 10:40:33;;;;;;;2.63;1.80;;;;;;;;;;4977987;28;20173;-66
2023/10/29 10:42:58;;;;;;;1.73;1.60;;;;;;;;;;4978137;28;20031;-67
2023/10/29 10:45:27;;;;;;;2.08;1.27;;;;;;;;;;4977529;28;20039;-66
2023/10/29 10:47:54;;;;;;;1.90;1.38;;;;;;;;;;4977599;28;20041;-66
2023/10/29 10:50:20;;;;;;;1.52;1.42;;;;;;;;;;4977461;28;20027;-67
2023/10/29 10:52:46;;;;;;;1.45;1.33;;;;;;;;;;4977598;28;20101;-66
2023/10/29 10:55:12;;;;;;;2.20;1.55;;;;;;;;;;4977921;28;20058;-67
2023/10/29 10:57:37;;;;;;;4.47;1.50;;;;;;;;;;4960800;28;20082;-67
2023/10/29 11:00:05;;;;;;;1.38;1.27;;;;;;;;;;4977691;28;20121;-66
2023/10/29 11:02:33;;;;;;;1.50;1.40;;;;;;;;;;4977178;28;20081;-67
2023/10/29 11:05:09;;;;;;;1.63;1.48;;;;;;;;;;4976889;28;20058;-71
2023/10/29 11:07:44;;;;;;;1.40;1.30;;;;;;;;;;4976930;28;20110;-71
2023/10/29 11:10:20;;;;;;;2.45;1.50;;;;;;;;;;4977192;28;20205;-71
2023/10/29 11:12:49;;;;;;;1.45;1.30;;;;;;;;;;4976941;28;20035;-71
2023/10/29 11:15:23;;;;;;;2.03;1.27;;;;;;;;;;4959771;28;20453;-71
2023/10/29 11:18:02;;;;;;;2.65;1.30;;;;;;;;;;4976823;28;20031;-71
2023/10/29 11:20:46;;;;;;;2.33;1.30;;;;;;;;;;4958764;28;20469;-71
2023/10/29 13:01:54;;;;;;;1.75;1.20;;;;;;;;;;4998863;28;20072;-67
2023/10/29 13:04:20;;;;;;;2.95;1.58;;;;;;;;;;5014676;28;20072;-66
2023/10/29 13:06:45;;;;;;;1.70;1.42;;;;;;;;;;5014405;28;20022;-67
2023/10/29 13:09:12;;;;;;;1.38;1.10;;;;;;;;;;5014649;28;20014;-66
2023/10/29 13:11:40;;;;;;;1.50;1.10;;;;;;;;;;5013630;28;20388;-66
2023/10/29 13:14:05;;;;;;;1.98;1.15;;;;;;;;;;5013921;28;20038;-66
2023/10/29 13:16:31;;;;;;;1.60;1.25;;;;;;;;;;5014008;28;20037;-67
2023/10/29 13:18:59;;;;;;;1.25;1.00;;;;;;;;;;5014300;28;20031;-67
2023/10/29 13:21:26;;;;;;;1.35;1.10;;;;;;;;;;5014212;28;20037;-67
2023/10/29 13:23:51;;;;;;;1.85;1.33;;;;;;;;;;5014172;28;20014;-67
2023/10/29 13:26:17;;;;;;;1.55;1.45;;;;;;;;;;5014363;28;20445;-66
2023/10/29 13:28:42;;;;;;;3.13;1.20;;;;;;;;;;5014319;28;20056;-67
2023/10/29 13:31:10;;;;;;;2.28;1.20;;;;;;;;;;5014128;28;20067;-67
2023/10/29 13:33:35;;;;;;;1.42;1.30;;;;;;;;;;5013846;28;20092;-67
2023/10/29 13:36:03;;;;;;;2.30;1.40;;;;;;;;;;5013724;28;20033;-66
2023/10/29 13:38:28;;;;;;;1.63;1.30;;;;;;;;;;5013908;28;20080;-67
2023/10/29 13:40:53;;;;;;;1.17;1.08;;;;;;;;;;5013885;28;20030;-67
2023/10/29 13:43:19;;;;;;;1.63;1.02;;;;;;;;;;5013740;28;20073;-67
2023/10/29 13:45:56;;;;;;;2.17;1.33;;;;;;;;;;5013341;28;20038;-67
2023/10/29 13:48:21;;;;;;;1.30;1.20;;;;;;;;;;5012609;28;20496;-67
2023/10/29 13:50:46;;;;;;;1.38;1.27;;;;;;;;;;5013128;28;20038;-63
2023/10/29 13:53:12;;;;;;;2.58;1.40;;;;;;;;;;5014414;28;20034;-63
2023/10/29 13:55:37;;;;;;;1.45;1.33;;;;;;;;;;5017099;28;20022;-63
2023/10/29 13:58:02;;;;;;;2.80;1.33;;;;;;;;;;5017179;28;20429;-63
2023/10/29 14:00:28;;;;;;;2.58;1.33;;;;;;;;;;5017175;28;20037;-65
2023/10/29 14:02:54;;;;;;;1.85;1.20;;;;;;;;;;5017073;28;20041;-65
2023/10/29 14:05:20;;;;;;;1.65;1.55;;;;;;;;;;5016740;28;20465;-65
2023/10/29 14:07:46;;;;;;;2.63;1.48;;;;;;;;;;4999517;28;20030;-65
2023/10/29 14:10:11;;;;;;;2.30;1.33;;;;;;;;;;5016908;28;20534;-65
2023/10/29 14:12:36;;;;;;;2.15;1.40;;;;;;;;;;5015641;28;20113;-65
2023/10/29 14:15:02;;;;;;;1.48;1.35;;;;;;;;;;5016486;28;20109;-65
2023/10/29 14:17:27;;;;;;;2.38;1.05;;;;;;;;;;5016566;28;20124;-65
2023/10/29 14:19:53;;;;;;;1.70;1.40;;;;;;;;;;5015503;28;20084;-66
2023/10/29 14:22:18;;;;;;;1.40;1.13;;;;;;;;;;5016382;28;20026;-66
2023/10/29 14:24:44;;;;;;;1.85;1.48;;;;;;;;;;5016612;28;20034;-65
2023/10/29 14:27:09;;;;;;;1.42;1.33;;;;;;;;;;5016378;28;20021;-66
2023/10/29 14:29:35;;;;;;;2.50;1.27;;;;;;;;;;5015989;28;20022;-65
2023/10/29 14:32:00;;;;;;;1.33;1.23;;;;;;;;;;4999067;28;20121;-65
2023/10/29 14:34:28;;;;;;;3.05;1.55;;;;;;;;;;4999716;28;20025;-65
2023/10/29 14:36:53;;;;;;;1.85;1.65;;;;;;;;;;5017110;28;20048;-65
2023/10/29 14:39:19;;;;;;;3.65;1.60;;;;;;;;;;5016019;28;20461;-65
2023/10/29 14:41:45;;;;;;;2.80;1.67;;;;;;;;;;5017110;28;20033;-65
2023/10/29 14:44:14;;;;;;;2.55;1.83;;;;;;;;;;5016748;28;20113;-65
2023/10/29 14:46:39;;;;;;;2.60;1.70;;;;;;;;;;5015688;28;20117;-65
2023/10/29 14:49:05;;;;;;;3.50;1.73;;;;;;;;;;5016555;28;20113;-65
2023/10/29 14:51:31;;;;;;;2.63;2.30;;;;;;;;;;5016659;28;20030;-65
2023/10/29 14:53:59;;;;;;;16.50;8.80;;;;;;;;;;5016889;28;20029;-65
2023/10/29 14:56:25;;;;;;;17.35;9.20;;;;;;;;;;5016709;28;20045;-65
2023/10/29 14:58:50;;;;;;;16.88;8.57;;;;;;;;;;5016715;28;20037;-65
2023/10/29 15:01:16;;;;;;;13.63;8.20;;;;;;;;;;5016332;28;20022;-65
2023/10/29 15:03:42;;;;;;;6.38;4.10;;;;;;;;;;5016071;28;20042;-65
2023/10/29 15:06:11;;;;;;;5.57;3.97;;;;;;;;;;5016411;28;20142;-65
2023/10/29 15:08:37;;;;;;;3.53;3.00;;;;;;;;;;5016154;28;20503;-64
2023/10/29 15:11:08;;;;;;;2.63;2.25;;;;;;;;;;5016134;28;20026;-64
2023/10/29 15:13:33;;;;;;;3.70;2.80;;;;;;;;;;4998782;28;20034;-65
2023/10/29 15:16:01;;;;;;;3.40;2.97;;;;;;;;;;5016514;28;20022;-65
2023/10/29 15:18:27;;;;;;;4.72;2.60;;;;;;;;;;5016318;28;20033;-64
2023/10/29 15:20:53;;;;;;;5.63;3.42;;;;;;;;;;5016367;28;20033;-65
2023/10/29 15:23:18;;;;;;;4.82;3.47;;;;;;;;;;5016110;28;20447;-65
2023/10/29 15:25:44;;;;;;;4.13;3.25;;;;;;;;;;5016008;28;20034;-65
2023/10/29 15:28:09;;;;;;;17.67;9.52;;;;;;;;;;5015100;28;20100;-65
2023/10/29 15:30:34;;;;;;;38.00;18.42;;;;;;;;;;5015819;28;20373;-64
2023/10/29 15:33:00;;;;;;;80.82;41.33;;;;;;;;;;5031534;28;20361;-64
2023/10/29 15:35:25;;;;;;;63.15;32.88;;;;;;;;;;5015751;28;20397;-64
2023/10/29 15:37:51;;;;;;;19.02;11.25;;;;;;;;;;5015980;28;20445;-64
2023/10/29 15:40:16;;;;;;;77.05;35.55;;;;;;;;;;5015978;28;20041;-64
2023/10/29 15:42:41;;;;;;;192.05;79.07;;;;;;;;;;5015541;28;20041;-64
2023/10/29 15:45:07;;;;;;;89.78;43.17;;;;;;;;;;5015561;28;20038;-65
2023/10/29 15:47:32;;;;;;;80.60;40.08;;;;;;;;;;5015523;28;20022;-64
2023/10/29 15:49:59;;;;;;;65.53;32.50;;;;;;;;;;5031524;28;20052;-64
2023/10/29 15:52:24;;;;;;;68.07;36.15;;;;;;;;;;5015766;28;20080;-64
2023/10/29 15:54:51;;;;;;;49.03;24.45;;;;;;;;;;5015175;28;20045;-65
2023/10/29 15:57:16;;;;;;;43.80;22.02;;;;;;;;;;5015237;28;20030;-66
2023/10/29 15:59:48;;;;;;;44.92;22.42;;;;;;;;;;5014997;28;20126;-65
2023/10/29 16:02:22;;;;;;;73.00;33.65;;;;;;;;;;5014937;28;20088;-65
2023/10/29 16:04:47;;;;;;;29.63;15.15;;;;;;;;;;5015552;28;20049;-62
2023/10/29 16:07:18;;;;;;;19.33;11.00;;;;;;;;;;5015357;28;20029;-63
2023/10/29 16:09:44;;;;;;;21.08;11.05;;;;;;;;;;5014168;28;20033;-66
2023/10/29 16:12:10;;;;;;;37.40;21.70;;;;;;;;;;5015308;28;20029;-65
2023/10/29 16:14:36;;;;;;;43.28;21.05;;;;;;;;;;5015296;28;20038;-65
2023/10/29 16:17:01;;;;;;;102.65;45.80;;;;;;;;;;5014421;28;20025;-66
2023/10/29 16:19:26;;;;;;;55.70;27.42;;;;;;;;;;5015205;28;20116;-65
2023/10/29 16:21:53;;;;;;;93.72;41.45;;;;;;;;;;5015530;28;20476;-67
2023/10/29 16:24:18;;;;;;;120.00;49.47;;;;;;;;;;5014927;28;20077;-67
2023/10/29 16:26:44;;;;;;;134.13;53.72;;;;;;;;;;5015081;28;20060;-67
2023/10/29 16:29:12;;;;;;;121.88;48.97;;;;;;;;;;5014996;28;20026;-67
2023/10/29 16:31:40;;;;;;;278.25;113.80;;;;;;;;;;5015199;28;20018;-67
2023/10/29 16:34:07;;;;;;;144.98;67.72;;;;;;;;;;5015089;28;20087;-66
2023/10/29 16:36:32;;;;;;;136.13;62.15;;;;;;;;;;5015154;28;20064;-66
2023/10/29 16:38:58;;;;;;;118.53;55.55;;;;;;;;;;5014570;28;20121;-68
2023/10/29 16:41:23;;;;;;;153.88;68.90;;;;;;;;;;5014604;28;20046;-67
2023/10/29 16:43:48;;;;;;;137.30;60.35;;;;;;;;;;5028483;28;20033;-67
2023/10/29 16:46:18;;;;;;;172.38;72.28;;;;;;;;;;5033948;28;20465;-67
2023/10/29 16:48:45;;;;;;;177.80;71.43;;;;;;;;;;5034038;28;20461;-66
2023/10/29 16:51:10;;;;;;;118.80;55.00;;;;;;;;;;5034346;28;20025;-63
2023/10/29 16:53:37;;;;;;;136.93;60.83;;;;;;;;;;5034217;28;20428;-63
2023/10/29 16:56:04;;;;;;;130.00;57.08;;;;;;;;;;5000272;28;20428;-63
2023/10/29 16:58:29;;;;;;;101.97;51.45;;;;;;;;;;5033833;28;20029;-63
2023/10/29 17:00:54;;;;;;;95.18;54.25;;;;;;;;;;5034108;28;20040;-63
2023/10/29 17:03:20;;;;;;;72.85;37.60;;;;;;;;;;5033918;28;20041;-71
2023/10/29 17:05:47;;;;;;;63.08;33.42;;;;;;;;;;5033919;28;20269;-60
2023/10/29 17:08:13;;;;;;;66.20;36.10;;;;;;;;;;5033594;28;20071;-61
2023/10/29 17:10:39;;;;;;;44.05;25.70;;;;;;;;;;5033353;28;20025;-61
2023/10/29 17:13:04;;;;;;;70.75;34.30;;;;;;;;;;5033428;28;20021;-62
2023/10/29 17:15:30;;;;;;;154.90;88.43;;;;;;;;;;5033189;28;20029;-63
2023/10/29 17:17:57;;;;;;;113.05;61.55;;;;;;;;;;5033554;28;20038;-63
2023/10/29 17:20:23;;;;;;;89.72;45.88;;;;;;;;;;5033515;28;20022;-63
2023/10/29 17:23:02;;;;;;;92.47;46.35;;;;;;;;;;5033470;28;20076;-63
2023/10/29 17:25:27;;;;;;;96.63;46.60;;;;;;;;;;5033394;28;20473;-63
2023/10/29 17:27:54;;;;;;;93.72;47.67;;;;;;;;;;5037852;28;20104;-60
2023/10/29 17:30:19;;;;;;;88.50;44.78;;;;;;;;;;5022207;28;20068;-60
2023/10/29 17:32:45;;;;;;;78.25;42.70;;;;;;;;;;5039890;28;20061;-60
2023/10/29 17:35:11;;;;;;;77.47;41.10;;;;;;;;;;5039714;28;20444;-60
2023/10/29 17:37:36;;;;;;;119.30;60.95;;;;;;;;;;5022141;28;20033;-60
2023/10/29 17:40:01;;;;;;;158.13;76.40;;;;;;;;;;5039866;28;20037;-60
2023/10/29 17:42:29;;;;;;;151.73;71.50;;;;;;;;;;5039822;28;20473;-60
2023/10/29 17:44:54;;;;;;;135.48;64.88;;;;;;;;;;5039798;28;20453;-60
2023/10/29 17:47:20;;;;;;;168.02;85.50;;;;;;;;;;5039926;28;20037;-62
2023/10/29 17:49:45;;;;;;;153.77;77.57;;;;;;;;;;5038714;28;20033;-62
2023/10/29 17:52:10;;;;;;;129.48;65.00;;;;;;;;;;5039593;28;20027;-62